sensor_id;sensor_type;location;lat;lon;timestamp;pressure;altitude;pressure_sealevel;temperature;humidity
28310;BME280;15571;50.974;13.936;2023-01-31T02:19:56;100179.53;;;3.41;100.00
28310;BME280;15571;50.974;13.936;2023-01-31T02:23:11;100188.13;;;3.40;100.00
28310;BME280;15571;50.974;13.936;2023-01-31T02:29:53;100186.38;;;3.39;100.00
28310;BME280;15571;50.974;13.936;2023-01-31T02:33:06;100180.25;;;3.35;100.00
28310;BME280;15571;50.974;13.936;2023-01-31T02:36:15;100194.97;;;3.38;100.00
28310;BME280;15571;50.974;13.936;2023-01-31T02:39:26;100203.59;;;3.38;100.00
28310;BME280;15571;50.974;13.936;2023-01-31T02:42:32;100216.50;;;3.37;100.00
28310;BME280;15571;50.974;13.936;2023-01-31T02:45:37;100227.66;;;3.33;100.00
28310;BME280;15571;50.974;13.936;2023-01-31T02:48:45;100218.25;;;3.36;100.00
28310;BME280;15571;50.974;13.936;2023-01-31T02:51:53;100231.97;;;3.34;100.00
28310;BME280;15571;50.974;13.936;2023-01-31T02:55:11;100243.22;;;3.36;100.00
28310;BME280;15571;50.974;13.936;2023-01-31T02:58:36;100238.22;;;3.42;100.00
28310;BME280;15571;50.974;13.936;2023-01-31T03:01:40;100233.91;;;3.42;100.00
28310;BME280;15571;50.974;13.936;2023-01-31T03:04:45;100245.19;;;3.46;100.00
28310;BME280;15571;50.974;13.936;2023-01-31T03:07:51;100252.03;;;3.44;100.00
28310;BME280;15571;50.974;13.936;2023-01-31T03:10:58;100260.81;;;3.49;100.00
28310;BME280;15571;50.974;13.936;2023-01-31T03:14:02;100253.88;;;3.48;100.00
28310;BME280;15571;50.974;13.936;2023-01-31T03:17:11;100262.56;;;3.50;100.00
28310;BME280;15571;50.974;13.936;2023-01-31T03:20:30;100266.84;;;3.50;100.00
28310;BME280;15571;50.974;13.936;2023-01-31T03:23:37;100269.50;;;3.51;100.00
28310;BME280;15571;50.974;13.936;2023-01-31T03:26:40;100279.03;;;3.54;100.00
28310;BME280;15571;50.974;13.936;2023-01-31T03:29:43;100283.31;;;3.53;100.00
28310;BME280;15571;50.974;13.936;2023-01-31T03:32:47;100283.31;;;3.53;100.00
28310;BME280;15571;50.974;13.936;2023-01-31T03:35:55;100286.81;;;3.54;100.00
28310;BME280;15571;50.974;13.936;2023-01-31T03:39:09;100300.59;;;3.54;100.00
28310;BME280;15571;50.974;13.936;2023-01-31T03:42:16;100295.38;;;3.51;100.00
28310;BME280;15571;50.974;13.936;2023-01-31T03:45:25;100309.16;;;3.50;100.00
28310;BME280;15571;50.974;13.936;2023-01-31T03:48:31;100309.75;;;3.40;100.00
28310;BME280;15571;50.974;13.936;2023-01-31T03:51:35;100316.69;;;3.41;100.00
28310;BME280;15571;50.974;13.936;2023-01-31T03:54:40;100321.09;;;3.45;100.00
28310;BME280;15571;50.974;13.936;2023-01-31T03:57:47;100327.09;;;3.44;100.00
28310;BME280;15571;50.974;13.936;2023-01-31T04:00:51;100323.66;;;3.45;100.00
28310;BME280;15571;50.974;13.936;2023-01-31T04:03:56;100331.44;;;3.45;100.00
28310;BME280;15571;50.974;13.936;2023-01-31T04:07:01;100324.59;;;3.47;100.00
28310;BME280;15571;50.974;13.936;2023-01-31T04:10:06;100327.91;;;3.41;100.00
28310;BME280;15571;50.974;13.936;2023-01-31T04:13:11;100330.50;;;3.41;100.00
28310;BME280;15571;50.974;13.936;2023-01-31T04:16:13;100345.16;;;3.41;100.00
28310;BME280;15571;50.974;13.936;2023-01-31T04:19:15;100339.88;;;3.38;100.00
28310;BME280;15571;50.974;13.936;2023-01-31T04:22:19;100337.22;;;3.35;100.00
28310;BME280;15571;50.974;13.936;2023-01-31T04:25:23;100338.91;;;3.33;100.00
28310;BME280;15571;50.974;13.936;2023-01-31T04:28:24;100336.16;;;3.26;100.00
28310;BME280;15571;50.974;13.936;2023-01-31T04:31:26;100343.06;;;3.27;100.00
28310;BME280;15571;50.974;13.936;2023-01-31T04:34:31;100347.31;;;3.25;100.00
28310;BME280;15571;50.974;13.936;2023-01-31T04:37:34;100337.75;;;3.21;100.00
28310;BME280;15571;50.974;13.936;2023-01-31T04:40:38;100348.88;;;3.19;100.00
28310;BME280;15571;50.974;13.936;2023-01-31T04:43:45;100357.38;;;3.13;100.00
28310;BME280;15571;50.974;13.936;2023-01-31T04:46:47;100359.06;;;3.13;100.00
28310;BME280;15571;50.974;13.936;2023-01-31T04:49:49;100360.66;;;3.07;100.00
28310;BME280;15571;50.974;13.936;2023-01-31T04:52:53;100351.09;;;3.05;100.00
28310;BME280;15571;50.974;13.936;2023-01-31T04:55:55;100361.44;;;3.05;100.00
28310;BME280;15571;50.974;13.936;2023-01-31T04:58:57;100354.59;;;3.07;100.00
28310;BME280;15571;50.974;13.936;2023-01-31T05:01:59;100347.66;;;3.06;100.00
28310;BME280;15571;50.974;13.936;2023-01-31T05:05:01;100348.47;;;3.03;100.00
28310;BME280;15571;50.974;13.936;2023-01-31T05:08:07;100347.50;;;3.00;100.00
28310;BME280;15571;50.974;13.936;2023-01-31T05:11:09;100356.19;;;3.02;100.00
28310;BME280;15571;50.974;13.936;2023-01-31T05:14:11;100346.69;;;3.01;100.00
28310;BME280;15571;50.974;13.936;2023-01-31T05:17:14;100355.25;;;2.98;100.00
28310;BME280;15571;50.974;13.936;2023-01-31T05:20:18;100347.50;;;3.00;100.00
28310;BME280;15571;50.974;13.936;2023-01-31T05:23:23;100347.41;;;2.96;100.00
28310;BME280;15571;50.974;13.936;2023-01-31T05:26:25;100343.16;;;2.99;100.00
28310;BME280;15571;50.974;13.936;2023-01-31T05:29:27;100332.84;;;3.00;100.00
28310;BME280;15571;50.974;13.936;2023-01-31T05:32:35;100345.03;;;3.03;100.00
28310;BME280;15571;50.974;13.936;2023-01-31T05:35:37;100336.38;;;3.02;100.00
28310;BME280;15571;50.974;13.936;2023-01-31T05:38:42;100337.31;;;3.06;100.00
28310;BME280;15571;50.974;13.936;2023-01-31T05:41:44;100349.50;;;3.08;100.00
28310;BME280;15571;50.974;13.936;2023-01-31T05:44:46;100367.63;;;3.10;100.00
28310;BME280;15571;50.974;13.936;2023-01-31T05:47:53;100349.59;;;3.13;100.00
28310;BME280;15571;50.974;13.936;2023-01-31T05:50:55;100358.19;;;3.12;100.00
28310;BME280;15571;50.974;13.936;2023-01-31T05:54:00;100369.41;;;3.13;100.00
28310;BME280;15571;50.974;13.936;2023-01-31T05:57:04;100357.31;;;3.11;100.00
28310;BME280;15571;50.974;13.936;2023-01-31T06:00:07;100355.56;;;3.10;100.00
28310;BME280;15571;50.974;13.936;2023-01-31T06:03:12;100366.94;;;3.17;100.00
28310;BME280;15571;50.974;13.936;2023-01-31T06:06:17;100376.19;;;3.07;100.00
28310;BME280;15571;50.974;13.936;2023-01-31T06:09:21;100372.78;;;3.10;100.00
28310;BME280;15571;50.974;13.936;2023-01-31T06:12:23;100382.25;;;3.09;100.00
28310;BME280;15571;50.974;13.936;2023-01-31T06:15:31;100367.53;;;3.07;100.00
28310;BME280;15571;50.974;13.936;2023-01-31T06:18:33;100383.72;;;3.00;100.00
28310;BME280;15571;50.974;13.936;2023-01-31T06:21:35;100395.19;;;2.79;100.00
28310;BME280;15571;50.974;13.936;2023-01-31T06:24:39;100380.63;;;2.81;100.00
28310;BME280;15571;50.974;13.936;2023-01-31T06:27:41;100384.16;;;2.85;100.00
28310;BME280;15571;50.974;13.936;2023-01-31T06:30:43;100382.41;;;2.84;100.00
28310;BME280;15571;50.974;13.936;2023-01-31T06:33:45;100379.09;;;2.88;100.00
28310;BME280;15571;50.974;13.936;2023-01-31T06:36:47;100380.06;;;2.91;100.00
28310;BME280;15571;50.974;13.936;2023-01-31T06:39:53;100381.72;;;2.89;100.00
28310;BME280;15571;50.974;13.936;2023-01-31T06:42:58;100390.41;;;2.91;100.00
28310;BME280;15571;50.974;13.936;2023-01-31T06:46:00;100397.31;;;2.92;100.00
28310;BME280;15571;50.974;13.936;2023-01-31T06:49:07;100398.28;;;2.96;100.00
28310;BME280;15571;50.974;13.936;2023-01-31T06:52:09;100406.03;;;2.96;100.00
28310;BME280;15571;50.974;13.936;2023-01-31T06:55:13;100406.91;;;2.96;100.00
28310;BME280;15571;50.974;13.936;2023-01-31T06:58:15;100418.16;;;2.99;100.00
28310;BME280;15571;50.974;13.936;2023-01-31T07:01:17;100413.09;;;3.02;100.00
28310;BME280;15571;50.974;13.936;2023-01-31T07:04:21;100417.31;;;2.98;100.00
28310;BME280;15571;50.974;13.936;2023-01-31T07:07:23;100410.38;;;2.97;100.00
28310;BME280;15571;50.974;13.936;2023-01-31T07:10:27;100413.00;;;2.99;100.00
28310;BME280;15571;50.974;13.936;2023-01-31T07:13:31;100415.63;;;3.00;100.00
28310;BME280;15571;50.974;13.936;2023-01-31T07:16:33;100423.25;;;2.95;100.00
28310;BME280;15571;50.974;13.936;2023-01-31T07:19:37;100419.81;;;2.96;100.00
28310;BME280;15571;50.974;13.936;2023-01-31T07:22:44;100431.94;;;2.98;100.00
28310;BME280;15571;50.974;13.936;2023-01-31T07:25:52;100433.78;;;3.02;100.00
28310;BME280;15571;50.974;13.936;2023-01-31T07:28:54;100428.66;;;3.03;100.00
28310;BME280;15571;50.974;13.936;2023-01-31T07:31:56;100433.00;;;3.04;100.00
28310;BME280;15571;50.974;13.936;2023-01-31T07:34:58;100427.03;;;3.07;100.00
28310;BME280;15571;50.974;13.936;2023-01-31T07:38:00;100434.03;;;3.11;100.00
28310;BME280;15571;50.974;13.936;2023-01-31T07:41:04;100430.56;;;3.10;100.00
28310;BME280;15571;50.974;13.936;2023-01-31T07:44:08;100432.41;;;3.15;100.00
28310;BME280;15571;50.974;13.936;2023-01-31T07:47:11;100430.78;;;3.18;100.00
28310;BME280;15571;50.974;13.936;2023-01-31T07:50:13;100438.66;;;3.21;100.00
28310;BME280;15571;50.974;13.936;2023-01-31T07:53:15;100436.06;;;3.21;100.00
28310;BME280;15571;50.974;13.936;2023-01-31T07:56:18;100437.81;;;3.22;100.00
28310;BME280;15571;50.974;13.936;2023-01-31T07:59:21;100442.19;;;3.25;100.00
28310;BME280;15571;50.974;13.936;2023-01-31T08:02:23;100433.66;;;3.29;100.00
28310;BME280;15571;50.974;13.936;2023-01-31T08:05:45;100438.81;;;3.27;100.00
28310;BME280;15571;50.974;13.936;2023-01-31T08:08:47;100437.97;;;3.29;100.00
28310;BME280;15571;50.974;13.936;2023-01-31T08:11:59;100444.06;;;3.31;100.00
28310;BME280;15571;50.974;13.936;2023-01-31T08:15:01;100445.03;;;3.34;100.00
28310;BME280;15571;50.974;13.936;2023-01-31T08:18:05;100442.41;;;3.33;100.00
28310;BME280;15571;50.974;13.936;2023-01-31T08:21:10;100436.38;;;3.34;100.00
28310;BME280;15571;50.974;13.936;2023-01-31T08:24:12;100437.38;;;3.37;100.00
28310;BME280;15571;50.974;13.936;2023-01-31T08:27:16;100439.97;;;3.39;100.00
28310;BME280;15571;50.974;13.936;2023-01-31T08:30:19;100429.78;;;3.45;100.00
28310;BME280;15571;50.974;13.936;2023-01-31T08:33:21;100425.53;;;3.47;100.00
28310;BME280;15571;50.974;13.936;2023-01-31T08:36:24;100421.31;;;3.51;100.00
28310;BME280;15571;50.974;13.936;2023-01-31T08:39:28;100414.59;;;3.57;100.00
28310;BME280;15571;50.974;13.936;2023-01-31T08:42:32;100425.91;;;3.63;100.00
28310;BME280;15571;50.974;13.936;2023-01-31T08:45:33;100440.72;;;3.67;100.00
28310;BME280;15571;50.974;13.936;2023-01-31T08:48:37;100424.34;;;3.68;100.00
28310;BME280;15571;50.974;13.936;2023-01-31T08:51:43;100421.78;;;3.69;100.00
28310;BME280;15571;50.974;13.936;2023-01-31T08:54:48;100428.84;;;3.75;100.00
28310;BME280;15571;50.974;13.936;2023-01-31T08:57:52;100423.72;;;3.77;100.00
28310;BME280;15571;50.974;13.936;2023-01-31T09:00:59;100428.00;;;3.76;100.00
28310;BME280;15571;50.974;13.936;2023-01-31T09:04:01;100427.28;;;3.82;100.00
28310;BME280;15571;50.974;13.936;2023-01-31T09:07:03;100430.72;;;3.82;100.00
28310;BME280;15571;50.974;13.936;2023-01-31T09:10:05;100426.53;;;3.86;100.00
28310;BME280;15571;50.974;13.936;2023-01-31T09:13:09;100428.44;;;3.93;100.00
28310;BME280;15571;50.974;13.936;2023-01-31T09:16:11;100416.34;;;3.94;100.00
28310;BME280;15571;50.974;13.936;2023-01-31T09:19:13;100417.34;;;3.99;100.00
28310;BME280;15571;50.974;13.936;2023-01-31T09:22:15;100412.16;;;3.99;100.00
28310;BME280;15571;50.974;13.936;2023-01-31T09:25:17;100418.28;;;4.02;100.00
28310;BME280;15571;50.974;13.936;2023-01-31T09:28:21;100413.97;;;4.03;100.00
28310;BME280;15571;50.974;13.936;2023-01-31T09:31:23;100411.56;;;4.09;100.00
28310;BME280;15571;50.974;13.936;2023-01-31T09:34:25;100406.38;;;4.09;100.00
28310;BME280;15571;50.974;13.936;2023-01-31T09:37:28;100400.38;;;4.12;100.00
28310;BME280;15571;50.974;13.936;2023-01-31T09:40:31;100396.97;;;4.14;100.00
28310;BME280;15571;50.974;13.936;2023-01-31T09:43:38;100390.13;;;4.16;100.00
28310;BME280;15571;50.974;13.936;2023-01-31T09:46:50;100390.25;;;4.23;100.00
28310;BME280;15571;50.974;13.936;2023-01-31T09:49:55;100383.56;;;4.31;100.00
28310;BME280;15571;50.974;13.936;2023-01-31T09:53:02;100376.75;;;4.36;100.00
28310;BME280;15571;50.974;13.936;2023-01-31T09:56:08;100376.81;;;4.39;100.00
28310;BME280;15571;50.974;13.936;2023-01-31T09:59:16;100373.53;;;4.46;100.00
28310;BME280;15571;50.974;13.936;2023-01-31T10:02:30;100363.16;;;4.46;100.00
28310;BME280;15571;50.974;13.936;2023-01-31T10:05:39;100370.16;;;4.50;100.00
28310;BME280;15571;50.974;13.936;2023-01-31T10:08:46;100380.56;;;4.54;100.00
28310;BME280;15571;50.974;13.936;2023-01-31T10:11:51;100387.44;;;4.51;100.00
28310;BME280;15571;50.974;13.936;2023-01-31T10:14:57;100380.53;;;4.50;100.00
28310;BME280;15571;50.974;13.936;2023-01-31T10:18:00;100384.16;;;4.59;100.00
28310;BME280;15571;50.974;13.936;2023-01-31T10:21:03;100373.84;;;4.62;100.00
28310;BME280;15571;50.974;13.936;2023-01-31T10:24:09;100361.75;;;4.62;100.00
28310;BME280;15571;50.974;13.936;2023-01-31T10:27:15;100354.09;;;4.68;100.00
28310;BME280;15571;50.974;13.936;2023-01-31T10:30:22;100355.94;;;4.73;100.00
28310;BME280;15571;50.974;13.936;2023-01-31T10:33:32;100355.09;;;4.75;100.00
28310;BME280;15571;50.974;13.936;2023-01-31T10:36:37;100343.91;;;4.78;100.00
28310;BME280;15571;50.974;13.936;2023-01-31T10:39:41;100337.91;;;4.80;100.00
28310;BME280;15571;50.974;13.936;2023-01-31T10:42:48;100344.91;;;4.85;100.00
28310;BME280;15571;50.974;13.936;2023-01-31T10:45:53;100331.22;;;4.92;100.00
28310;BME280;15571;50.974;13.936;2023-01-31T10:48:56;100334.72;;;4.94;100.00
28310;BME280;15571;50.974;13.936;2023-01-31T10:52:01;100335.66;;;4.97;100.00
28310;BME280;15571;50.974;13.936;2023-01-31T10:55:12;100324.44;;;5.00;100.00
28310;BME280;15571;50.974;13.936;2023-01-31T10:58:20;100319.25;;;5.00;100.00
28310;BME280;15571;50.974;13.936;2023-01-31T11:01:24;100312.44;;;5.05;100.00
28310;BME280;15571;50.974;13.936;2023-01-31T11:04:27;100312.50;;;5.08;100.00
28310;BME280;15571;50.974;13.936;2023-01-31T11:07:30;100310.75;;;5.07;100.00
28310;BME280;15571;50.974;13.936;2023-01-31T11:10:32;100300.34;;;5.06;100.00
28310;BME280;15571;50.974;13.936;2023-01-31T11:13:34;100311.53;;;5.03;100.00
28310;BME280;15571;50.974;13.936;2023-01-31T11:16:38;100291.69;;;5.05;100.00
28310;BME280;15571;50.974;13.936;2023-01-31T11:19:43;100283.13;;;5.09;100.00
28310;BME280;15571;50.974;13.936;2023-01-31T11:22:49;100272.75;;;5.09;100.00
28310;BME280;15571;50.974;13.936;2023-01-31T11:25:52;100265.84;;;5.11;100.00
28310;BME280;15571;50.974;13.936;2023-01-31T11:29:05;100270.25;;;5.17;100.00
28310;BME280;15571;50.974;13.936;2023-01-31T11:32:40;100258.19;;;5.18;100.00
28310;BME280;15571;50.974;13.936;2023-01-31T11:35:44;100264.25;;;5.20;100.00
28310;BME280;15571;50.974;13.936;2023-01-31T11:38:56;100247.88;;;5.22;100.00
28310;BME280;15571;50.974;13.936;2023-01-31T11:42:03;100239.25;;;5.23;100.00
28310;BME280;15571;50.974;13.936;2023-01-31T11:45:15;100231.47;;;5.25;100.00
28310;BME280;15571;50.974;13.936;2023-01-31T11:48:20;100231.53;;;5.28;100.00
28310;BME280;15571;50.974;13.936;2023-01-31T11:51:27;100232.41;;;5.28;100.00
28310;BME280;15571;50.974;13.936;2023-01-31T11:54:31;100240.13;;;5.25;100.00
28310;BME280;15571;50.974;13.936;2023-01-31T11:57:35;100218.56;;;5.29;100.00
28310;BME280;15571;50.974;13.936;2023-01-31T12:00:43;100225.59;;;5.35;100.00
28310;BME280;15571;50.974;13.936;2023-01-31T12:03:54;100211.78;;;5.39;100.00
28310;BME280;15571;50.974;13.936;2023-01-31T12:06:59;100204.06;;;5.42;100.00
28310;BME280;15571;50.974;13.936;2023-01-31T12:10:02;100200.63;;;5.45;100.00
28310;BME280;15571;50.974;13.936;2023-01-31T12:13:10;100195.47;;;5.47;100.00
28310;BME280;15571;50.974;13.936;2023-01-31T12:16:13;100173.84;;;5.48;100.00
28310;BME280;15571;50.974;13.936;2023-01-31T12:19:23;100167.00;;;5.54;100.00
28310;BME280;15571;50.974;13.936;2023-01-31T12:22:29;100157.56;;;5.58;100.00
28310;BME280;15571;50.974;13.936;2023-01-31T17:53:28;99962.56;;;4.68;100.00
28310;BME280;15571;50.974;13.936;2023-01-31T17:56:49;99951.34;;;4.70;100.00
28310;BME280;15571;50.974;13.936;2023-01-31T18:00:41;99950.50;;;4.72;100.00
28310;BME280;15571;50.974;13.936;2023-01-31T18:03:44;99961.78;;;4.74;100.00
28310;BME280;15571;50.974;13.936;2023-01-31T18:18:28;99933.34;;;4.82;100.00
28310;BME280;15571;50.974;13.936;2023-01-31T18:21:49;99960.13;;;4.81;100.00
28310;BME280;15571;50.974;13.936;2023-01-31T18:33:26;99956.81;;;4.90;100.00
28310;BME280;15571;50.974;13.936;2023-01-31T18:41:06;99936.97;;;4.95;100.00
28310;BME280;15571;50.974;13.936;2023-01-31T18:44:22;99924.91;;;4.98;100.00
28310;BME280;15571;50.974;13.936;2023-01-31T18:48:00;99918.88;;;5.01;100.00
28310;BME280;15571;50.974;13.936;2023-01-31T18:51:35;99923.22;;;5.02;100.00
28310;BME280;15571;50.974;13.936;2023-01-31T18:55:11;99918.09;;;5.05;100.00
28310;BME280;15571;50.974;13.936;2023-01-31T22:14:38;99942.00;;;4.82;100.00
28310;BME280;15571;50.974;13.936;2023-01-31T22:17:41;99925.59;;;4.83;100.00
28310;BME280;15571;50.974;13.936;2023-01-31T22:20:42;99928.19;;;4.83;100.00
28310;BME280;15571;50.974;13.936;2023-01-31T22:23:46;99921.31;;;4.86;100.00
28310;BME280;15571;50.974;13.936;2023-01-31T22:26:48;99922.16;;;4.85;100.00
28310;BME280;15571;50.974;13.936;2023-01-31T22:29:52;99921.31;;;4.86;100.00
28310;BME280;15571;50.974;13.936;2023-01-31T22:32:54;99912.66;;;4.87;100.00
28310;BME280;15571;50.974;13.936;2023-01-31T22:35:56;99900.59;;;4.89;100.00
28310;BME280;15571;50.974;13.936;2023-01-31T22:39:00;99898.91;;;4.92;100.00
28310;BME280;15571;50.974;13.936;2023-01-31T22:42:02;99894.56;;;4.93;100.00
28310;BME280;15571;50.974;13.936;2023-01-31T22:45:06;99902.41;;;4.96;100.00
28310;BME280;15571;50.974;13.936;2023-01-31T22:48:09;99894.63;;;4.96;100.00
28310;BME280;15571;50.974;13.936;2023-01-31T22:51:12;99886.88;;;4.99;100.00
28310;BME280;15571;50.974;13.936;2023-01-31T22:54:17;99891.19;;;4.98;100.00
28310;BME280;15571;50.974;13.936;2023-01-31T22:57:18;99883.41;;;4.98;100.00
28310;BME280;15571;50.974;13.936;2023-01-31T23:00:22;99877.38;;;4.99;100.00
28310;BME280;15571;50.974;13.936;2023-01-31T23:03:26;99900.72;;;4.98;100.00
28310;BME280;15571;50.974;13.936;2023-01-31T23:06:28;99900.78;;;5.04;100.00
28310;BME280;15571;50.974;13.936;2023-01-31T23:09:30;99901.63;;;5.05;100.00
28310;BME280;15571;50.974;13.936;2023-01-31T23:12:38;99914.66;;;5.08;100.00
28310;BME280;15571;50.974;13.936;2023-01-31T23:15:43;99902.56;;;5.11;100.00
28310;BME280;15571;50.974;13.936;2023-01-31T23:18:45;99907.75;;;5.11;100.00
28310;BME280;15571;50.974;13.936;2023-01-31T23:21:55;99910.41;;;5.13;100.00
28310;BME280;15571;50.974;13.936;2023-01-31T23:24:57;99900.88;;;5.13;100.00
28310;BME280;15571;50.974;13.936;2023-01-31T23:28:00;99902.63;;;5.14;100.00
28310;BME280;15571;50.974;13.936;2023-01-31T23:31:03;99910.41;;;5.13;100.00
28310;BME280;15571;50.974;13.936;2023-01-31T23:34:06;99911.31;;;5.17;100.00
28310;BME280;15571;50.974;13.936;2023-01-31T23:37:08;99899.19;;;5.16;100.00
28310;BME280;15571;50.974;13.936;2023-01-31T23:40:10;99905.28;;;5.21;100.00
28310;BME280;15571;50.974;13.936;2023-01-31T23:43:12;99909.59;;;5.19;100.00
28310;BME280;15571;50.974;13.936;2023-01-31T23:46:15;99909.56;;;5.17;100.00
28310;BME280;15571;50.974;13.936;2023-01-31T23:49:17;99907.84;;;5.18;100.00
28310;BME280;15571;50.974;13.936;2023-01-31T23:52:19;99917.41;;;5.22;100.00
28310;BME280;15571;50.974;13.936;2023-01-31T23:55:21;99926.94;;;5.23;100.00
28310;BME280;15571;50.974;13.936;2023-01-31T23:58:23;99913.94;;;5.23;100.00
